sensor_id;sensor_type;location;lat;lon;timestamp;P1;durP1;ratioP1;P2;durP2;ratioP2
66437;SDS011;54537;47.972;11.662;2023-06-10T00:03:42;10.45;;;5.70;;
66437;SDS011;54537;47.972;11.662;2023-06-10T00:06:09;10.68;;;6.25;;
66437;SDS011;54537;47.972;11.662;2023-06-10T00:08:35;12.80;;;6.22;;
66437;SDS011;54537;47.972;11.662;2023-06-10T00:11:02;11.90;;;6.85;;
66437;SDS011;54537;47.972;11.662;2023-06-10T00:22:58;9.77;;;5.38;;
66437;SDS011;54537;47.972;11.662;2023-06-10T00:28:57;11.30;;;6.05;;
66437;SDS011;54537;47.972;11.662;2023-06-10T00:31:23;10.80;;;6.18;;
66437;SDS011;54537;47.972;11.662;2023-06-10T00:33:52;12.38;;;6.35;;
66437;SDS011;54537;47.972;11.662;2023-06-10T00:36:19;10.85;;;6.25;;
66437;SDS011;54537;47.972;11.662;2023-06-10T00:38:45;10.35;;;6.40;;
66437;SDS011;54537;47.972;11.662;2023-06-10T00:44:00;10.63;;;6.13;;
66437;SDS011;54537;47.972;11.662;2023-06-10T00:46:26;10.95;;;6.05;;
66437;SDS011;54537;47.972;11.662;2023-06-10T00:51:55;12.15;;;6.68;;
66437;SDS011;54537;47.972;11.662;2023-06-10T00:54:21;12.23;;;6.30;;
66437;SDS011;54537;47.972;11.662;2023-06-10T00:56:48;11.25;;;6.18;;
66437;SDS011;54537;47.972;11.662;2023-06-10T00:59:21;9.65;;;5.78;;
66437;SDS011;54537;47.972;11.662;2023-06-10T01:01:53;10.52;;;6.18;;
66437;SDS011;54537;47.972;11.662;2023-06-10T01:14:07;12.73;;;6.40;;
66437;SDS011;54537;47.972;11.662;2023-06-10T01:23:07;12.63;;;7.60;;
66437;SDS011;54537;47.972;11.662;2023-06-10T01:38:19;12.50;;;6.63;;
66437;SDS011;54537;47.972;11.662;2023-06-10T01:40:47;12.23;;;6.90;;
66437;SDS011;54537;47.972;11.662;2023-06-10T01:46:36;12.30;;;6.22;;
66437;SDS011;54537;47.972;11.662;2023-06-10T01:58:11;14.70;;;7.07;;
66437;SDS011;54537;47.972;11.662;2023-06-10T02:04:05;11.98;;;6.80;;
66437;SDS011;54537;47.972;11.662;2023-06-10T02:06:44;12.57;;;6.68;;
66437;SDS011;54537;47.972;11.662;2023-06-10T02:09:11;12.30;;;6.75;;
66437;SDS011;54537;47.972;11.662;2023-06-10T02:11:39;12.57;;;6.65;;
66437;SDS011;54537;47.972;11.662;2023-06-10T02:14:05;11.95;;;6.68;;
66437;SDS011;54537;47.972;11.662;2023-06-10T02:16:32;12.13;;;6.70;;
66437;SDS011;54537;47.972;11.662;2023-06-10T02:25:32;13.05;;;6.55;;
66437;SDS011;54537;47.972;11.662;2023-06-10T02:31:21;15.05;;;7.60;;
66437;SDS011;54537;47.972;11.662;2023-06-10T02:33:50;13.95;;;7.35;;
66437;SDS011;54537;47.972;11.662;2023-06-10T02:39:50;13.45;;;6.80;;
66437;SDS011;54537;47.972;11.662;2023-06-10T02:42:20;12.30;;;6.65;;
66437;SDS011;54537;47.972;11.662;2023-06-10T02:44:48;12.73;;;7.28;;
66437;SDS011;54537;47.972;11.662;2023-06-10T02:53:39;12.35;;;7.18;;
66437;SDS011;54537;47.972;11.662;2023-06-10T02:56:05;14.80;;;7.88;;
66437;SDS011;54537;47.972;11.662;2023-06-10T03:01:43;11.82;;;6.65;;
66437;SDS011;54537;47.972;11.662;2023-06-10T03:04:10;12.65;;;7.20;;
66437;SDS011;54537;47.972;11.662;2023-06-10T03:06:38;15.02;;;8.10;;
66437;SDS011;54537;47.972;11.662;2023-06-10T03:09:05;14.32;;;7.70;;
66437;SDS011;54537;47.972;11.662;2023-06-10T03:11:32;17.88;;;7.90;;
66437;SDS011;54537;47.972;11.662;2023-06-10T03:13:58;12.85;;;7.35;;
66437;SDS011;54537;47.972;11.662;2023-06-10T03:16:25;13.48;;;7.43;;
66437;SDS011;54537;47.972;11.662;2023-06-10T03:18:53;13.45;;;7.95;;
66437;SDS011;54537;47.972;11.662;2023-06-10T03:21:20;14.07;;;7.30;;
66437;SDS011;54537;47.972;11.662;2023-06-10T03:30:22;14.95;;;7.60;;
66437;SDS011;54537;47.972;11.662;2023-06-10T03:32:49;13.13;;;7.45;;
66437;SDS011;54537;47.972;11.662;2023-06-10T03:50:47;12.02;;;6.88;;
66437;SDS011;54537;47.972;11.662;2023-06-10T03:56:37;14.52;;;7.25;;
66437;SDS011;54537;47.972;11.662;2023-06-10T03:59:06;18.42;;;7.43;;
66437;SDS011;54537;47.972;11.662;2023-06-10T04:04:55;14.48;;;7.07;;
66437;SDS011;54537;47.972;11.662;2023-06-10T04:07:21;12.90;;;7.45;;
66437;SDS011;54537;47.972;11.662;2023-06-10T04:13:19;14.45;;;7.72;;
66437;SDS011;54537;47.972;11.662;2023-06-10T04:15:47;14.02;;;7.65;;
66437;SDS011;54537;47.972;11.662;2023-06-10T04:35:01;14.23;;;7.65;;
66437;SDS011;54537;47.972;11.662;2023-06-10T04:37:27;15.85;;;7.82;;
66437;SDS011;54537;47.972;11.662;2023-06-10T04:39:55;14.75;;;8.05;;
66437;SDS011;54537;47.972;11.662;2023-06-10T04:42:22;14.93;;;7.72;;
66437;SDS011;54537;47.972;11.662;2023-06-10T04:44:48;14.73;;;8.35;;
66437;SDS011;54537;47.972;11.662;2023-06-10T04:47:15;15.50;;;8.60;;
66437;SDS011;54537;47.972;11.662;2023-06-10T04:49:42;14.38;;;7.78;;
66437;SDS011;54537;47.972;11.662;2023-06-10T04:55:31;14.98;;;8.32;;
66437;SDS011;54537;47.972;11.662;2023-06-10T05:00:56;15.80;;;7.90;;
66437;SDS011;54537;47.972;11.662;2023-06-10T05:03:22;13.88;;;7.63;;
66437;SDS011;54537;47.972;11.662;2023-06-10T05:05:49;13.77;;;8.25;;
66437;SDS011;54537;47.972;11.662;2023-06-10T05:08:16;17.60;;;8.80;;
66437;SDS011;54537;47.972;11.662;2023-06-10T05:10:43;17.60;;;8.80;;
66437;SDS011;54537;47.972;11.662;2023-06-10T05:13:19;16.73;;;8.57;;
66437;SDS011;54537;47.972;11.662;2023-06-10T05:15:54;15.68;;;8.88;;
66437;SDS011;54537;47.972;11.662;2023-06-10T05:21:43;14.70;;;8.70;;
66437;SDS011;54537;47.972;11.662;2023-06-10T05:24:10;17.77;;;9.73;;
66437;SDS011;54537;47.972;11.662;2023-06-10T05:42:47;16.48;;;8.73;;
66437;SDS011;54537;47.972;11.662;2023-06-10T05:45:17;16.27;;;9.32;;
66437;SDS011;54537;47.972;11.662;2023-06-10T05:47:43;18.63;;;9.85;;
66437;SDS011;54537;47.972;11.662;2023-06-10T05:50:10;19.35;;;8.63;;
66437;SDS011;54537;47.972;11.662;2023-06-10T05:56:11;14.95;;;8.27;;
66437;SDS011;54537;47.972;11.662;2023-06-10T05:58:38;15.27;;;8.35;;
66437;SDS011;54537;47.972;11.662;2023-06-10T06:01:05;16.02;;;8.65;;
66437;SDS011;54537;47.972;11.662;2023-06-10T06:03:31;16.63;;;9.60;;
66437;SDS011;54537;47.972;11.662;2023-06-10T06:05:58;17.48;;;9.00;;
66437;SDS011;54537;47.972;11.662;2023-06-10T06:08:24;16.75;;;8.80;;
66437;SDS011;54537;47.972;11.662;2023-06-10T06:10:50;15.70;;;8.57;;
66437;SDS011;54537;47.972;11.662;2023-06-10T06:13:18;17.73;;;8.70;;
66437;SDS011;54537;47.972;11.662;2023-06-10T06:15:45;14.68;;;8.20;;
66437;SDS011;54537;47.972;11.662;2023-06-10T06:18:11;15.38;;;8.48;;
66437;SDS011;54537;47.972;11.662;2023-06-10T06:20:38;15.95;;;9.18;;
66437;SDS011;54537;47.972;11.662;2023-06-10T06:23:04;16.00;;;8.25;;
66437;SDS011;54537;47.972;11.662;2023-06-10T06:25:31;16.13;;;7.78;;
66437;SDS011;54537;47.972;11.662;2023-06-10T06:27:58;15.63;;;7.85;;
66437;SDS011;54537;47.972;11.662;2023-06-10T06:30:26;14.52;;;7.95;;
66437;SDS011;54537;47.972;11.662;2023-06-10T06:39:17;13.30;;;7.60;;
66437;SDS011;54537;47.972;11.662;2023-06-10T06:48:29;15.27;;;7.15;;
66437;SDS011;54537;47.972;11.662;2023-06-10T06:50:55;15.48;;;8.07;;
66437;SDS011;54537;47.972;11.662;2023-06-10T06:53:23;13.02;;;7.30;;
66437;SDS011;54537;47.972;11.662;2023-06-10T07:02:33;12.98;;;7.70;;
66437;SDS011;54537;47.972;11.662;2023-06-10T07:21:49;13.27;;;6.63;;
66437;SDS011;54537;47.972;11.662;2023-06-10T07:30:25;10.73;;;6.53;;
66437;SDS011;54537;47.972;11.662;2023-06-10T07:32:52;9.80;;;6.13;;
66437;SDS011;54537;47.972;11.662;2023-06-10T07:35:18;8.65;;;5.60;;
66437;SDS011;54537;47.972;11.662;2023-06-10T07:37:46;11.02;;;6.43;;
66437;SDS011;54537;47.972;11.662;2023-06-10T07:40:13;10.32;;;5.25;;
66437;SDS011;54537;47.972;11.662;2023-06-10T07:42:39;9.48;;;5.43;;
66437;SDS011;54537;47.972;11.662;2023-06-10T07:45:07;9.07;;;4.90;;
66437;SDS011;54537;47.972;11.662;2023-06-10T07:47:34;9.57;;;5.43;;
66437;SDS011;54537;47.972;11.662;2023-06-10T07:50:00;8.27;;;5.28;;
66437;SDS011;54537;47.972;11.662;2023-06-10T07:52:27;8.18;;;5.05;;
66437;SDS011;54537;47.972;11.662;2023-06-10T07:54:56;8.57;;;4.88;;
66437;SDS011;54537;47.972;11.662;2023-06-10T07:57:22;8.52;;;4.45;;
66437;SDS011;54537;47.972;11.662;2023-06-10T07:59:48;8.50;;;5.20;;
66437;SDS011;54537;47.972;11.662;2023-06-10T08:02:15;7.35;;;4.70;;
66437;SDS011;54537;47.972;11.662;2023-06-10T08:08:21;9.18;;;4.75;;
66437;SDS011;54537;47.972;11.662;2023-06-10T08:15:03;9.02;;;4.15;;
66437;SDS011;54537;47.972;11.662;2023-06-10T08:20:51;6.47;;;4.05;;
66437;SDS011;54537;47.972;11.662;2023-06-10T09:03:04;5.85;;;3.05;;
66437;SDS011;54537;47.972;11.662;2023-06-10T09:05:45;4.88;;;3.38;;
66437;SDS011;54537;47.972;11.662;2023-06-10T09:11:28;6.13;;;3.38;;
66437;SDS011;54537;47.972;11.662;2023-06-10T09:17:05;6.22;;;3.53;;
66437;SDS011;54537;47.972;11.662;2023-06-10T09:19:33;4.45;;;3.03;;
66437;SDS011;54537;47.972;11.662;2023-06-10T09:28:14;4.97;;;3.40;;
66437;SDS011;54537;47.972;11.662;2023-06-10T09:30:41;5.53;;;3.85;;
66437;SDS011;54537;47.972;11.662;2023-06-10T09:33:09;5.35;;;3.28;;
66437;SDS011;54537;47.972;11.662;2023-06-10T09:35:44;5.18;;;3.75;;
66437;SDS011;54537;47.972;11.662;2023-06-10T09:38:11;6.15;;;3.42;;
66437;SDS011;54537;47.972;11.662;2023-06-10T09:40:47;5.40;;;3.70;;
66437;SDS011;54537;47.972;11.662;2023-06-10T09:43:15;5.22;;;3.60;;
66437;SDS011;54537;47.972;11.662;2023-06-10T09:45:41;5.30;;;3.10;;
66437;SDS011;54537;47.972;11.662;2023-06-10T09:57:33;5.07;;;3.42;;
66437;SDS011;54537;47.972;11.662;2023-06-10T10:03:22;5.00;;;3.33;;
66437;SDS011;54537;47.972;11.662;2023-06-10T10:05:49;6.18;;;3.25;;
66437;SDS011;54537;47.972;11.662;2023-06-10T10:08:15;4.47;;;3.10;;
66437;SDS011;54537;47.972;11.662;2023-06-10T10:10:42;5.20;;;3.55;;
66437;SDS011;54537;47.972;11.662;2023-06-10T10:13:09;6.60;;;3.53;;
66437;SDS011;54537;47.972;11.662;2023-06-10T10:15:51;5.70;;;3.25;;
66437;SDS011;54537;47.972;11.662;2023-06-10T10:21:40;4.78;;;3.03;;
66437;SDS011;54537;47.972;11.662;2023-06-10T10:24:12;4.15;;;2.72;;
66437;SDS011;54537;47.972;11.662;2023-06-10T10:30:06;6.82;;;2.95;;
66437;SDS011;54537;47.972;11.662;2023-06-10T10:32:37;6.35;;;2.97;;
66437;SDS011;54537;47.972;11.662;2023-06-10T10:35:08;4.80;;;3.00;;
66437;SDS011;54537;47.972;11.662;2023-06-10T10:37:35;6.03;;;3.17;;
66437;SDS011;54537;47.972;11.662;2023-06-10T11:13:44;4.60;;;2.80;;
66437;SDS011;54537;47.972;11.662;2023-06-10T11:16:24;4.97;;;2.80;;
66437;SDS011;54537;47.972;11.662;2023-06-10T11:18:53;4.55;;;2.42;;
66437;SDS011;54537;47.972;11.662;2023-06-10T11:21:20;4.00;;;2.58;;
66437;SDS011;54537;47.972;11.662;2023-06-10T11:23:47;4.43;;;2.55;;
66437;SDS011;54537;47.972;11.662;2023-06-10T11:30:12;3.85;;;2.17;;
66437;SDS011;54537;47.972;11.662;2023-06-10T11:36:06;4.30;;;2.40;;
66437;SDS011;54537;47.972;11.662;2023-06-10T11:48:49;3.42;;;2.17;;
66437;SDS011;54537;47.972;11.662;2023-06-10T11:52:04;3.33;;;2.15;;
66437;SDS011;54537;47.972;11.662;2023-06-10T11:54:33;4.70;;;2.13;;
66437;SDS011;54537;47.972;11.662;2023-06-10T12:24:06;3.10;;;2.20;;
66437;SDS011;54537;47.972;11.662;2023-06-10T12:26:34;3.92;;;2.28;;
66437;SDS011;54537;47.972;11.662;2023-06-10T12:29:12;3.95;;;2.25;;
66437;SDS011;54537;47.972;11.662;2023-06-10T12:31:57;4.47;;;2.22;;
66437;SDS011;54537;47.972;11.662;2023-06-10T12:34:31;3.75;;;2.13;;
66437;SDS011;54537;47.972;11.662;2023-06-10T12:36:59;3.97;;;2.20;;
66437;SDS011;54537;47.972;11.662;2023-06-10T12:48:55;4.15;;;2.45;;
66437;SDS011;54537;47.972;11.662;2023-06-10T12:51:22;3.85;;;2.38;;
66437;SDS011;54537;47.972;11.662;2023-06-10T12:54:07;4.38;;;2.58;;
66437;SDS011;54537;47.972;11.662;2023-06-10T12:59:41;4.35;;;2.63;;
66437;SDS011;54537;47.972;11.662;2023-06-10T13:02:15;6.53;;;2.47;;
66437;SDS011;54537;47.972;11.662;2023-06-10T13:04:43;4.25;;;2.42;;
66437;SDS011;54537;47.972;11.662;2023-06-10T13:10:26;5.22;;;2.80;;
66437;SDS011;54537;47.972;11.662;2023-06-10T13:12:59;6.00;;;2.92;;
66437;SDS011;54537;47.972;11.662;2023-06-10T13:15:27;7.85;;;2.58;;
66437;SDS011;54537;47.972;11.662;2023-06-10T13:17:54;4.82;;;2.70;;
66437;SDS011;54537;47.972;11.662;2023-06-10T13:20:29;5.07;;;3.30;;
66437;SDS011;54537;47.972;11.662;2023-06-10T13:39:43;7.20;;;3.50;;
66437;SDS011;54537;47.972;11.662;2023-06-10T13:42:40;9.57;;;3.33;;
66437;SDS011;54537;47.972;11.662;2023-06-10T13:48:29;7.10;;;3.55;;
66437;SDS011;54537;47.972;11.662;2023-06-10T13:50:56;6.78;;;3.97;;
66437;SDS011;54537;47.972;11.662;2023-06-10T13:59:40;6.18;;;3.22;;
66437;SDS011;54537;47.972;11.662;2023-06-10T14:08:50;5.25;;;3.10;;
66437;SDS011;54537;47.972;11.662;2023-06-10T14:11:19;5.68;;;3.15;;
66437;SDS011;54537;47.972;11.662;2023-06-10T14:17:23;5.20;;;2.90;;
66437;SDS011;54537;47.972;11.662;2023-06-10T14:19:49;5.72;;;3.08;;
66437;SDS011;54537;47.972;11.662;2023-06-10T14:22:16;5.28;;;2.92;;
66437;SDS011;54537;47.972;11.662;2023-06-10T14:24:42;4.75;;;2.75;;
66437;SDS011;54537;47.972;11.662;2023-06-10T14:27:09;4.97;;;3.05;;
66437;SDS011;54537;47.972;11.662;2023-06-10T14:29:35;6.30;;;3.10;;
66437;SDS011;54537;47.972;11.662;2023-06-10T14:32:02;5.65;;;3.15;;
66437;SDS011;54537;47.972;11.662;2023-06-10T14:34:30;6.25;;;3.30;;
66437;SDS011;54537;47.972;11.662;2023-06-10T14:36:58;5.07;;;3.05;;
66437;SDS011;54537;47.972;11.662;2023-06-10T14:39:25;4.95;;;2.72;;
66437;SDS011;54537;47.972;11.662;2023-06-10T14:41:51;4.70;;;2.85;;
66437;SDS011;54537;47.972;11.662;2023-06-10T14:44:18;3.83;;;2.50;;
66437;SDS011;54537;47.972;11.662;2023-06-10T14:46:45;4.30;;;2.63;;
66437;SDS011;54537;47.972;11.662;2023-06-10T14:49:12;4.10;;;2.58;;
66437;SDS011;54537;47.972;11.662;2023-06-10T14:51:40;4.72;;;2.78;;
66437;SDS011;54537;47.972;11.662;2023-06-10T14:54:06;4.22;;;2.45;;
66437;SDS011;54537;47.972;11.662;2023-06-10T14:56:33;4.88;;;2.72;;
66437;SDS011;54537;47.972;11.662;2023-06-10T14:58:59;4.18;;;2.83;;
66437;SDS011;54537;47.972;11.662;2023-06-10T15:01:26;5.07;;;2.50;;
66437;SDS011;54537;47.972;11.662;2023-06-10T15:03:52;4.68;;;2.53;;
66437;SDS011;54537;47.972;11.662;2023-06-10T15:06:19;4.70;;;2.65;;
66437;SDS011;54537;47.972;11.662;2023-06-10T15:08:47;5.32;;;2.72;;
66437;SDS011;54537;47.972;11.662;2023-06-10T15:11:14;4.10;;;2.50;;
66437;SDS011;54537;47.972;11.662;2023-06-10T15:13:40;4.05;;;2.50;;
66437;SDS011;54537;47.972;11.662;2023-06-10T15:16:06;5.35;;;2.72;;
66437;SDS011;54537;47.972;11.662;2023-06-10T15:18:33;4.40;;;2.42;;
66437;SDS011;54537;47.972;11.662;2023-06-10T15:21:00;6.03;;;2.78;;
66437;SDS011;54537;47.972;11.662;2023-06-10T15:23:26;6.40;;;2.70;;
66437;SDS011;54537;47.972;11.662;2023-06-10T15:25:54;5.13;;;3.00;;
66437;SDS011;54537;47.972;11.662;2023-06-10T15:28:20;4.93;;;2.50;;
66437;SDS011;54537;47.972;11.662;2023-06-10T15:30:47;4.20;;;2.72;;
66437;SDS011;54537;47.972;11.662;2023-06-10T15:33:14;4.40;;;2.80;;
66437;SDS011;54537;47.972;11.662;2023-06-10T15:35:40;6.65;;;2.78;;
66437;SDS011;54537;47.972;11.662;2023-06-10T15:38:06;5.80;;;3.13;;
66437;SDS011;54537;47.972;11.662;2023-06-10T15:40:33;4.68;;;2.80;;
66437;SDS011;54537;47.972;11.662;2023-06-10T15:43:01;4.80;;;2.80;;
66437;SDS011;54537;47.972;11.662;2023-06-10T15:45:28;5.20;;;3.03;;
66437;SDS011;54537;47.972;11.662;2023-06-10T15:47:54;5.40;;;3.20;;
66437;SDS011;54537;47.972;11.662;2023-06-10T15:50:21;8.80;;;3.45;;
66437;SDS011;54537;47.972;11.662;2023-06-10T15:52:47;5.00;;;3.08;;
66437;SDS011;54537;47.972;11.662;2023-06-10T15:55:14;7.28;;;3.08;;
66437;SDS011;54537;47.972;11.662;2023-06-10T15:57:41;7.70;;;3.25;;
66437;SDS011;54537;47.972;11.662;2023-06-10T16:00:09;5.57;;;3.17;;
66437;SDS011;54537;47.972;11.662;2023-06-10T16:02:36;6.60;;;3.53;;
66437;SDS011;54537;47.972;11.662;2023-06-10T16:05:03;5.88;;;3.13;;
66437;SDS011;54537;47.972;11.662;2023-06-10T16:07:30;6.45;;;3.38;;
66437;SDS011;54537;47.972;11.662;2023-06-10T16:09:56;7.18;;;3.90;;
66437;SDS011;54537;47.972;11.662;2023-06-10T16:12:22;5.75;;;3.50;;
66437;SDS011;54537;47.972;11.662;2023-06-10T16:14:49;6.13;;;3.72;;
66437;SDS011;54537;47.972;11.662;2023-06-10T16:17:17;6.10;;;3.63;;
66437;SDS011;54537;47.972;11.662;2023-06-10T16:19:43;6.57;;;3.58;;
66437;SDS011;54537;47.972;11.662;2023-06-10T16:22:10;7.00;;;4.03;;
66437;SDS011;54537;47.972;11.662;2023-06-10T16:24:36;6.57;;;3.83;;
66437;SDS011;54537;47.972;11.662;2023-06-10T16:27:03;6.05;;;3.75;;
66437;SDS011;54537;47.972;11.662;2023-06-10T16:29:32;5.43;;;3.60;;
66437;SDS011;54537;47.972;11.662;2023-06-10T16:31:58;6.50;;;3.90;;
66437;SDS011;54537;47.972;11.662;2023-06-10T16:34:26;8.10;;;4.20;;
66437;SDS011;54537;47.972;11.662;2023-06-10T16:36:53;7.68;;;4.72;;
66437;SDS011;54537;47.972;11.662;2023-06-10T16:39:19;7.20;;;4.35;;
66437;SDS011;54537;47.972;11.662;2023-06-10T16:41:46;7.07;;;3.92;;
66437;SDS011;54537;47.972;11.662;2023-06-10T16:44:12;8.88;;;4.05;;
66437;SDS011;54537;47.972;11.662;2023-06-10T16:46:41;7.43;;;4.20;;
66437;SDS011;54537;47.972;11.662;2023-06-10T16:49:08;8.25;;;4.22;;
66437;SDS011;54537;47.972;11.662;2023-06-10T16:51:36;8.40;;;4.22;;
66437;SDS011;54537;47.972;11.662;2023-06-10T16:54:02;8.27;;;4.53;;
66437;SDS011;54537;47.972;11.662;2023-06-10T16:56:29;7.97;;;4.30;;
66437;SDS011;54537;47.972;11.662;2023-06-10T16:58:55;9.05;;;4.72;;
66437;SDS011;54537;47.972;11.662;2023-06-10T17:01:22;8.35;;;4.22;;
66437;SDS011;54537;47.972;11.662;2023-06-10T17:03:49;6.15;;;3.78;;
66437;SDS011;54537;47.972;11.662;2023-06-10T17:06:15;6.72;;;4.35;;
66437;SDS011;54537;47.972;11.662;2023-06-10T17:08:44;6.80;;;3.78;;
66437;SDS011;54537;47.972;11.662;2023-06-10T17:11:11;6.50;;;4.07;;
66437;SDS011;54537;47.972;11.662;2023-06-10T17:13:37;7.47;;;4.03;;
66437;SDS011;54537;47.972;11.662;2023-06-10T17:16:04;7.55;;;4.20;;
66437;SDS011;54537;47.972;11.662;2023-06-10T17:18:30;7.28;;;3.83;;
66437;SDS011;54537;47.972;11.662;2023-06-10T17:20:57;8.98;;;3.85;;
66437;SDS011;54537;47.972;11.662;2023-06-10T17:23:23;7.53;;;4.28;;
66437;SDS011;54537;47.972;11.662;2023-06-10T17:25:51;7.25;;;4.10;;
66437;SDS011;54537;47.972;11.662;2023-06-10T17:28:17;8.27;;;3.97;;
66437;SDS011;54537;47.972;11.662;2023-06-10T17:30:44;6.13;;;3.20;;
66437;SDS011;54537;47.972;11.662;2023-06-10T17:33:12;5.45;;;3.10;;
66437;SDS011;54537;47.972;11.662;2023-06-10T17:35:39;4.90;;;2.88;;
66437;SDS011;54537;47.972;11.662;2023-06-10T17:38:06;4.97;;;2.88;;
66437;SDS011;54537;47.972;11.662;2023-06-10T17:40:32;4.40;;;2.70;;
66437;SDS011;54537;47.972;11.662;2023-06-10T17:43:00;5.57;;;2.92;;
66437;SDS011;54537;47.972;11.662;2023-06-10T17:45:26;6.65;;;3.13;;
66437;SDS011;54537;47.972;11.662;2023-06-10T17:47:53;5.07;;;2.78;;
66437;SDS011;54537;47.972;11.662;2023-06-10T17:50:19;4.95;;;2.80;;
66437;SDS011;54537;47.972;11.662;2023-06-10T17:52:46;6.40;;;2.88;;
66437;SDS011;54537;47.972;11.662;2023-06-10T17:55:12;5.63;;;2.75;;
66437;SDS011;54537;47.972;11.662;2023-06-10T17:57:39;5.50;;;2.75;;
66437;SDS011;54537;47.972;11.662;2023-06-10T18:00:07;4.57;;;2.63;;
66437;SDS011;54537;47.972;11.662;2023-06-10T18:02:34;6.38;;;3.25;;
66437;SDS011;54537;47.972;11.662;2023-06-10T18:05:01;4.88;;;3.03;;
66437;SDS011;54537;47.972;11.662;2023-06-10T18:07:28;6.07;;;3.33;;
66437;SDS011;54537;47.972;11.662;2023-06-10T18:09:54;6.60;;;3.28;;
66437;SDS011;54537;47.972;11.662;2023-06-10T18:12:21;5.68;;;3.10;;
66437;SDS011;54537;47.972;11.662;2023-06-10T18:14:47;6.00;;;3.42;;
66437;SDS011;54537;47.972;11.662;2023-06-10T18:17:15;8.50;;;3.60;;
66437;SDS011;54537;47.972;11.662;2023-06-10T18:19:41;6.18;;;3.55;;
66437;SDS011;54537;47.972;11.662;2023-06-10T18:22:08;8.27;;;3.50;;
66437;SDS011;54537;47.972;11.662;2023-06-10T18:24:34;6.00;;;3.40;;
66437;SDS011;54537;47.972;11.662;2023-06-10T18:27:01;7.03;;;3.83;;
66437;SDS011;54537;47.972;11.662;2023-06-10T18:29:27;7.15;;;3.55;;
66437;SDS011;54537;47.972;11.662;2023-06-10T18:31:54;6.53;;;3.72;;
66437;SDS011;54537;47.972;11.662;2023-06-10T18:34:22;7.13;;;3.80;;
66437;SDS011;54537;47.972;11.662;2023-06-10T18:36:48;8.32;;;4.30;;
66437;SDS011;54537;47.972;11.662;2023-06-10T18:39:14;8.20;;;3.90;;
66437;SDS011;54537;47.972;11.662;2023-06-10T18:41:41;6.78;;;4.20;;
66437;SDS011;54537;47.972;11.662;2023-06-10T18:44:08;11.40;;;4.45;;
66437;SDS011;54537;47.972;11.662;2023-06-10T18:46:34;8.45;;;4.40;;
66437;SDS011;54537;47.972;11.662;2023-06-10T18:49:00;8.68;;;4.32;;
66437;SDS011;54537;47.972;11.662;2023-06-10T18:51:28;9.23;;;4.95;;
66437;SDS011;54537;47.972;11.662;2023-06-10T18:53:55;7.68;;;4.43;;
66437;SDS011;54537;47.972;11.662;2023-06-10T18:56:21;8.75;;;4.45;;
66437;SDS011;54537;47.972;11.662;2023-06-10T18:58:48;8.20;;;4.90;;
66437;SDS011;54537;47.972;11.662;2023-06-10T19:01:15;9.18;;;5.28;;
66437;SDS011;54537;47.972;11.662;2023-06-10T19:03:41;9.43;;;5.13;;
66437;SDS011;54537;47.972;11.662;2023-06-10T19:06:08;9.25;;;5.10;;
66437;SDS011;54537;47.972;11.662;2023-06-10T19:08:36;9.18;;;5.03;;
66437;SDS011;54537;47.972;11.662;2023-06-10T19:11:02;10.13;;;5.57;;
66437;SDS011;54537;47.972;11.662;2023-06-10T19:13:30;8.60;;;5.28;;
66437;SDS011;54537;47.972;11.662;2023-06-10T19:15:56;9.75;;;5.25;;
66437;SDS011;54537;47.972;11.662;2023-06-10T19:18:23;8.27;;;5.10;;
66437;SDS011;54537;47.972;11.662;2023-06-10T19:20:49;9.07;;;5.35;;
66437;SDS011;54537;47.972;11.662;2023-06-10T19:23:16;10.23;;;5.53;;
66437;SDS011;54537;47.972;11.662;2023-06-10T19:25:44;10.43;;;5.45;;
66437;SDS011;54537;47.972;11.662;2023-06-10T19:28:10;9.63;;;5.45;;
66437;SDS011;54537;47.972;11.662;2023-06-10T19:30:36;9.90;;;5.22;;
66437;SDS011;54537;47.972;11.662;2023-06-10T19:33:03;9.60;;;5.68;;
66437;SDS011;54537;47.972;11.662;2023-06-10T19:35:29;10.98;;;5.65;;
66437;SDS011;54537;47.972;11.662;2023-06-10T19:37:56;9.23;;;5.13;;
66437;SDS011;54537;47.972;11.662;2023-06-10T19:40:23;9.35;;;5.43;;
66437;SDS011;54537;47.972;11.662;2023-06-10T19:42:51;9.35;;;5.47;;
66437;SDS011;54537;47.972;11.662;2023-06-10T19:45:17;9.82;;;5.50;;
66437;SDS011;54537;47.972;11.662;2023-06-10T19:47:44;9.50;;;5.28;;
66437;SDS011;54537;47.972;11.662;2023-06-10T19:50:10;9.10;;;5.55;;
66437;SDS011;54537;47.972;11.662;2023-06-10T19:52:37;10.38;;;5.78;;
66437;SDS011;54537;47.972;11.662;2023-06-10T19:55:04;13.13;;;5.25;;
66437;SDS011;54537;47.972;11.662;2023-06-10T19:57:31;10.20;;;5.70;;
66437;SDS011;54537;47.972;11.662;2023-06-10T19:59:59;8.68;;;5.32;;
66437;SDS011;54537;47.972;11.662;2023-06-10T20:02:25;11.73;;;6.00;;
66437;SDS011;54537;47.972;11.662;2023-06-10T20:04:52;15.02;;;6.20;;
66437;SDS011;54537;47.972;11.662;2023-06-10T20:07:18;9.10;;;5.40;;
66437;SDS011;54537;47.972;11.662;2023-06-10T20:09:45;12.43;;;5.88;;
66437;SDS011;54537;47.972;11.662;2023-06-10T20:12:11;9.98;;;5.90;;
66437;SDS011;54537;47.972;11.662;2023-06-10T20:14:37;11.95;;;6.25;;
66437;SDS011;54537;47.972;11.662;2023-06-10T20:17:06;11.70;;;5.85;;
66437;SDS011;54537;47.972;11.662;2023-06-10T20:19:32;10.10;;;5.88;;
66437;SDS011;54537;47.972;11.662;2023-06-10T20:21:59;13.23;;;6.18;;
66437;SDS011;54537;47.972;11.662;2023-06-10T20:24:28;11.77;;;6.60;;
66437;SDS011;54537;47.972;11.662;2023-06-10T20:26:55;12.07;;;6.70;;
66437;SDS011;54537;47.972;11.662;2023-06-10T20:29:21;11.93;;;6.25;;
66437;SDS011;54537;47.972;11.662;2023-06-10T20:31:51;10.55;;;6.13;;
66437;SDS011;54537;47.972;11.662;2023-06-10T20:34:18;11.75;;;6.22;;
66437;SDS011;54537;47.972;11.662;2023-06-10T20:36:46;14.00;;;6.45;;
66437;SDS011;54537;47.972;11.662;2023-06-10T20:39:13;12.25;;;6.30;;
66437;SDS011;54537;47.972;11.662;2023-06-10T20:41:40;12.48;;;6.68;;
66437;SDS011;54537;47.972;11.662;2023-06-10T20:44:06;14.20;;;6.25;;
66437;SDS011;54537;47.972;11.662;2023-06-10T20:46:32;12.43;;;6.57;;
66437;SDS011;54537;47.972;11.662;2023-06-10T20:48:59;13.00;;;6.78;;
66437;SDS011;54537;47.972;11.662;2023-06-10T20:51:27;11.60;;;6.32;;
66437;SDS011;54537;47.972;11.662;2023-06-10T20:53:53;13.35;;;6.70;;
66437;SDS011;54537;47.972;11.662;2023-06-10T20:56:20;10.98;;;6.20;;
66437;SDS011;54537;47.972;11.662;2023-06-10T20:58:47;12.38;;;6.30;;
66437;SDS011;54537;47.972;11.662;2023-06-10T21:01:13;16.38;;;6.90;;
66437;SDS011;54537;47.972;11.662;2023-06-10T21:03:40;12.38;;;6.38;;
66437;SDS011;54537;47.972;11.662;2023-06-10T21:06:06;12.85;;;6.47;;
66437;SDS011;54537;47.972;11.662;2023-06-10T21:08:34;11.68;;;6.38;;
66437;SDS011;54537;47.972;11.662;2023-06-10T21:11:01;11.88;;;6.28;;
66437;SDS011;54537;47.972;11.662;2023-06-10T21:13:27;15.27;;;6.90;;
66437;SDS011;54537;47.972;11.662;2023-06-10T21:15:53;11.70;;;6.40;;
66437;SDS011;54537;47.972;11.662;2023-06-10T21:18:20;11.63;;;6.13;;
66437;SDS011;54537;47.972;11.662;2023-06-10T21:20:46;11.90;;;6.60;;
66437;SDS011;54537;47.972;11.662;2023-06-10T21:23:13;12.38;;;6.53;;
66437;SDS011;54537;47.972;11.662;2023-06-10T21:25:41;12.07;;;6.82;;
66437;SDS011;54537;47.972;11.662;2023-06-10T21:28:07;13.18;;;7.13;;
66437;SDS011;54537;47.972;11.662;2023-06-10T21:30:34;13.02;;;6.50;;
66437;SDS011;54537;47.972;11.662;2023-06-10T21:33:00;11.43;;;6.10;;
66437;SDS011;54537;47.972;11.662;2023-06-10T21:35:27;11.68;;;6.32;;